sensor_id;sensor_type;location;lat;lon;timestamp;temperature;humidity
27870;DHT22;15225;50.730;4.244;2023-04-19T18:48:28;13.40;99.90
27870;DHT22;15225;50.730;4.244;2023-04-19T18:50:54;13.10;99.90
27870;DHT22;15225;50.730;4.244;2023-04-19T18:53:21;13.20;99.90
27870;DHT22;15225;50.730;4.244;2023-04-19T18:55:47;13.30;99.90
27870;DHT22;15225;50.730;4.244;2023-04-19T18:58:13;13.30;99.90
27870;DHT22;15225;50.730;4.244;2023-04-19T19:00:39;13.30;99.90
27870;DHT22;15225;50.730;4.244;2023-04-19T19:03:05;13.40;99.90
27870;DHT22;15225;50.730;4.244;2023-04-19T19:05:30;13.60;99.90
27870;DHT22;15225;50.730;4.244;2023-04-19T19:07:56;13.40;99.90
27870;DHT22;15225;50.730;4.244;2023-04-19T19:10:22;13.30;99.90
27870;DHT22;15225;50.730;4.244;2023-04-19T19:12:48;13.30;99.90
27870;DHT22;15225;50.730;4.244;2023-04-19T19:15:13;13.30;99.90
27870;DHT22;15225;50.730;4.244;2023-04-19T19:17:39;13.30;99.90
27870;DHT22;15225;50.730;4.244;2023-04-19T19:20:06;13.30;99.90
27870;DHT22;15225;50.730;4.244;2023-04-19T19:22:32;13.20;99.90
27870;DHT22;15225;50.730;4.244;2023-04-19T19:24:58;13.20;99.90
27870;DHT22;15225;50.730;4.244;2023-04-19T19:27:23;13.20;99.90
27870;DHT22;15225;50.730;4.244;2023-04-19T19:29:49;13.00;99.90
27870;DHT22;15225;50.730;4.244;2023-04-19T19:32:16;13.00;99.90
27870;DHT22;15225;50.730;4.244;2023-04-19T19:34:43;13.10;99.90
27870;DHT22;15225;50.730;4.244;2023-04-19T19:37:09;13.20;99.90
27870;DHT22;15225;50.730;4.244;2023-04-19T19:39:34;13.10;99.90
27870;DHT22;15225;50.730;4.244;2023-04-19T19:42:00;12.90;99.90
27870;DHT22;15225;50.730;4.244;2023-04-19T19:44:26;12.80;99.90
27870;DHT22;15225;50.730;4.244;2023-04-19T19:46:51;12.90;99.90
27870;DHT22;15225;50.730;4.244;2023-04-19T19:49:17;12.90;99.90
27870;DHT22;15225;50.730;4.244;2023-04-19T19:51:43;13.00;99.90
27870;DHT22;15225;50.730;4.244;2023-04-19T19:54:08;13.00;99.90
27870;DHT22;15225;50.730;4.244;2023-04-19T19:56:34;13.10;99.90
27870;DHT22;15225;50.730;4.244;2023-04-19T19:58:59;13.30;99.90
27870;DHT22;15225;50.730;4.244;2023-04-19T20:01:25;13.60;99.90
27870;DHT22;15225;50.730;4.244;2023-04-19T20:03:53;13.70;99.90
27870;DHT22;15225;50.730;4.244;2023-04-19T20:06:20;13.50;99.90
27870;DHT22;15225;50.730;4.244;2023-04-19T20:08:45;13.30;99.90
27870;DHT22;15225;50.730;4.244;2023-04-19T20:11:12;13.40;99.90
27870;DHT22;15225;50.730;4.244;2023-04-19T20:13:37;13.40;99.90
27870;DHT22;15225;50.730;4.244;2023-04-19T20:16:03;13.40;99.90
27870;DHT22;15225;50.730;4.244;2023-04-19T20:18:30;13.20;99.90
27870;DHT22;15225;50.730;4.244;2023-04-19T20:20:55;13.10;99.90
27870;DHT22;15225;50.730;4.244;2023-04-19T20:23:22;13.00;99.90
27870;DHT22;15225;50.730;4.244;2023-04-19T20:25:47;13.00;99.90
27870;DHT22;15225;50.730;4.244;2023-04-19T20:28:13;12.70;99.90
27870;DHT22;15225;50.730;4.244;2023-04-19T20:30:39;12.50;99.90
27870;DHT22;15225;50.730;4.244;2023-04-19T20:33:05;12.40;99.90
27870;DHT22;15225;50.730;4.244;2023-04-19T20:35:31;12.40;99.90
27870;DHT22;15225;50.730;4.244;2023-04-19T20:38:00;12.60;99.90
27870;DHT22;15225;50.730;4.244;2023-04-19T20:40:27;12.60;99.90
27870;DHT22;15225;50.730;4.244;2023-04-19T20:42:53;12.50;99.90
27870;DHT22;15225;50.730;4.244;2023-04-19T20:45:19;12.40;99.90
27870;DHT22;15225;50.730;4.244;2023-04-19T20:47:45;12.40;99.90
27870;DHT22;15225;50.730;4.244;2023-04-19T20:50:11;12.40;99.90
27870;DHT22;15225;50.730;4.244;2023-04-19T20:52:37;12.50;99.90
27870;DHT22;15225;50.730;4.244;2023-04-19T20:55:03;12.30;99.90
27870;DHT22;15225;50.730;4.244;2023-04-19T20:57:29;12.10;99.90
27870;DHT22;15225;50.730;4.244;2023-04-19T20:59:55;12.00;99.90
27870;DHT22;15225;50.730;4.244;2023-04-19T21:02:20;12.00;99.90
27870;DHT22;15225;50.730;4.244;2023-04-19T21:04:46;11.90;99.90
27870;DHT22;15225;50.730;4.244;2023-04-19T21:07:12;11.90;99.90
27870;DHT22;15225;50.730;4.244;2023-04-19T21:09:37;11.90;99.90
27870;DHT22;15225;50.730;4.244;2023-04-19T21:12:03;11.80;99.90
27870;DHT22;15225;50.730;4.244;2023-04-19T21:14:30;11.70;99.90
